logo
Search for airport 
image banner adimage banner adimage banner ad
image banner ad

VT70 - North Country Hospital

Located in Newport, United States

ICAO - VT70, IATA -

Data provided by Airmate  

General information

Coordinates: N44°57'22" W72°11'58"
Elevation is 690 feet MSL.
Magnetic variation is -16° East
View others Airports in Vermont

Operational data

Special qualification required
Current time UTC:
Current local time:
Weather at : KEFK - Northeast Kingdom Intl ( 8 km )
METAR: KEFK 131635Z AUTO 18007G15KT 10SM BKN050 BKN070 11/03 A2937 RMK AO2 T01090025
TAF: KEFK 131120Z 1312/1412 15007KT P6SM -SHRA SCT050 BKN080 FM131800 23009KT P6SM VCSH BKN025 FM132100 26010KT P6SM -SHRA BKN015 FM140400 29012G18KT P6SM VCSH OVC016 FM141000 28008KT P6SM BKN045
View NOTAMs / SUP AIP / TFR affecting this airport [VIEW]
Communications frequencies: [VIEW]

Runways:

Airport contact information

Address: Newport United States

Satellite view of VT70